createdAt,value
2022-12-03T00:07:28.356Z,4.83
2022-12-03T00:17:32.690Z,4.74
2022-12-03T00:27:35.367Z,4.74
2022-12-03T00:37:39.439Z,4.78
2022-12-03T00:47:42.114Z,4.89
2022-12-03T00:57:46.135Z,4.78
2022-12-03T01:07:48.919Z,4.72
2022-12-03T01:17:54.195Z,4.65
2022-12-03T01:27:57.159Z,4.73
2022-12-03T01:38:01.167Z,4.73
2022-12-03T01:48:03.856Z,4.73
2022-12-03T01:58:09.242Z,4.75
2022-12-03T02:08:32.252Z,4.72
2022-12-03T02:18:36.443Z,4.80
2022-12-03T02:28:40.619Z,4.68
2022-12-03T02:38:45.015Z,4.67
2022-12-03T02:48:49.080Z,4.57
2022-12-03T02:58:55.606Z,4.49
2022-12-03T03:08:59.805Z,4.52
2022-12-03T03:19:02.891Z,4.58
2022-12-03T03:29:06.955Z,4.53
2022-12-03T03:39:10.723Z,4.47
2022-12-03T03:49:14.738Z,4.44
2022-12-03T03:59:17.603Z,4.32
2022-12-03T04:09:21.606Z,4.29
2022-12-03T04:19:24.216Z,4.16
2022-12-03T04:29:28.211Z,4.19
2022-12-03T04:39:31.034Z,4.14
2022-12-03T04:49:36.335Z,4.20
2022-12-03T04:59:39.512Z,4.17
2022-12-03T05:09:43.537Z,4.09
2022-12-03T05:20:03.685Z,4.03
2022-12-03T05:30:09.912Z,3.99
2022-12-03T05:40:13.977Z,3.74
2022-12-03T05:50:18.549Z,3.71
2022-12-03T06:00:23.341Z,3.64
2022-12-03T06:10:28.079Z,3.71
2022-12-03T06:20:30.724Z,3.61
2022-12-03T06:30:35.798Z,3.50
2022-12-03T06:40:38.858Z,3.49
2022-12-03T06:50:42.842Z,3.42
2022-12-03T07:00:45.550Z,3.28
2022-12-03T07:10:49.635Z,3.09
2022-12-03T07:20:52.242Z,3.03
2022-12-03T07:30:56.334Z,2.98
2022-12-03T07:40:59.107Z,2.86
2022-12-03T07:51:03.420Z,2.83
2022-12-03T08:01:06.387Z,2.78
2022-12-03T08:11:13.846Z,2.78
2022-12-03T08:21:18.357Z,2.81
2022-12-03T08:31:32.475Z,2.81
2022-12-03T08:41:55.096Z,2.91
2022-12-03T08:52:01.870Z,3.00
2022-12-03T09:02:19.731Z,3.08
2022-12-03T09:12:23.758Z,3.18
2022-12-03T09:22:26.419Z,2.98
2022-12-03T09:32:30.459Z,3.31
2022-12-03T09:42:33.123Z,3.39
2022-12-03T09:52:37.114Z,3.53
2022-12-03T10:02:39.799Z,3.40
2022-12-03T10:12:43.832Z,3.40
2022-12-03T10:22:48.615Z,3.61
2022-12-03T10:32:52.677Z,3.90
2022-12-03T10:43:13.983Z,4.17
2022-12-03T10:53:19.339Z,4.06
2022-12-03T11:03:24.757Z,4.24
2022-12-03T11:13:47.523Z,4.04
2022-12-03T11:24:19.360Z,3.89
2022-12-03T11:34:48.515Z,3.95
2022-12-03T11:45:16.951Z,3.99
2022-12-03T11:55:29.746Z,4.12
2022-12-03T12:05:34.083Z,4.09
2022-12-03T12:15:44.650Z,3.91
2022-12-03T12:25:52.470Z,3.98
2022-12-03T12:35:58.205Z,4.00
2022-12-03T12:46:38.724Z,4.29
2022-12-03T12:56:33.745Z,4.76
2022-12-03T13:06:36.422Z,4.42
2022-12-03T13:16:40.669Z,3.65
2022-12-03T13:26:43.412Z,3.48
2022-12-03T13:36:53.469Z,3.39
2022-12-03T13:47:02.932Z,3.40
2022-12-03T13:57:06.993Z,3.65
2022-12-03T14:07:09.625Z,3.62
2022-12-03T14:17:13.664Z,3.73
2022-12-03T14:27:16.424Z,3.61
2022-12-03T14:37:20.503Z,3.53
2022-12-03T14:47:38.362Z,3.18
2022-12-03T14:57:42.313Z,3.13
2022-12-03T15:07:45.019Z,3.13
2022-12-03T15:17:49.203Z,3.02
2022-12-03T15:27:51.891Z,3.01
2022-12-03T15:37:55.943Z,3.09
2022-12-03T15:47:58.667Z,3.04
2022-12-03T15:58:02.677Z,3.10
2022-12-03T16:08:05.793Z,3.12
2022-12-03T16:18:10.070Z,3.04
2022-12-03T16:28:12.894Z,3.13
2022-12-03T16:38:16.918Z,3.11
2022-12-03T16:48:19.883Z,3.08
2022-12-03T16:58:23.914Z,3.12
2022-12-03T17:08:26.554Z,3.10
2022-12-03T17:18:31.583Z,3.01
2022-12-03T17:28:34.310Z,2.98
2022-12-03T17:38:39.367Z,2.89
2022-12-03T17:48:42.654Z,2.88
2022-12-03T17:58:46.641Z,2.95
2022-12-03T18:08:49.267Z,2.85
2022-12-03T18:18:56.655Z,2.89
2022-12-03T18:29:00.911Z,2.82
2022-12-03T18:39:09.087Z,2.70
2022-12-03T18:49:11.764Z,2.67
2022-12-03T18:59:15.717Z,2.53
2022-12-03T19:09:18.375Z,2.39
2022-12-03T19:19:22.400Z,2.32
2022-12-03T19:29:25.457Z,2.26
2022-12-03T19:39:29.642Z,2.13
2022-12-03T19:49:32.623Z,2.07
2022-12-03T19:59:36.750Z,2.05
2022-12-03T20:09:39.490Z,2.01
2022-12-03T20:19:43.569Z,2.12
2022-12-03T20:29:46.347Z,2.07
2022-12-03T20:39:52.098Z,2.17
2022-12-03T20:49:55.342Z,2.17
2022-12-03T21:00:00.036Z,2.16
2022-12-03T21:10:02.775Z,2.26
2022-12-03T21:20:08.444Z,2.20
2022-12-03T21:30:11.653Z,2.22
2022-12-03T21:40:25.066Z,2.29
2022-12-03T21:50:27.901Z,2.26
2022-12-03T22:00:31.921Z,2.40
2022-12-03T22:10:35.470Z,2.44
2022-12-03T22:20:39.536Z,2.34
2022-12-03T22:30:42.277Z,2.42
2022-12-03T22:40:47.010Z,2.41
2022-12-03T22:50:50.531Z,2.27
2022-12-03T23:00:59.745Z,2.23
2022-12-03T23:11:05.319Z,2.09
2022-12-03T23:21:09.705Z,1.94
2022-12-03T23:31:17.085Z,1.92
2022-12-03T23:41:22.440Z,1.85
2022-12-03T23:51:26.618Z,1.73
